»·PEaware :: N203ES KTNP-L52

N203ES :: KTNP-L52

FLIGHT INFORMATION

Flight Status: Arrived
Operator: Privately registered:
United States
More flights under this callsign
Pilot: Greg L. (17564)
Aircraft: PIPER PA-31T-620 CHEYENNE 2
(PAY2)
More flights by this aircraft type
Origin: KTNP Twentynine Palms
United States
Destination: L52 Oceano Co
United States
More flights between these airports :: More routes between these airports
Route: YUCCA V264 POM V210 PIRRO V186 FIM V386 RZS V12 GVO V27 ORCUT
File this flight plan on PilotEdge
Remarks:
Altitude:
(Current/Filed)
9,500ft
Speed:
(Current/Filed)
140kts
Departed: 21-Dec-17 06:03 PM
Arrived: 21-Dec-17 07:17 PM
Distance/Time
Traveled:
238nm/1:14
Distance/Time
To Go:
Arrived

Flight Plot

Page will automatically refresh every two minutes.

Flight plan parsing failed; only flown route is shown


Map Options




Map Legend


Flown Route
Filed Route
Departure Airport
Arrival Airport
Navaid (VOR, NDB)
Fix

Horizontal Profiles

Position Reports

Time Latitude Longitude Heading Altitude Ground
Speed
21-Dec-17 17:46 34.135609 -115.946257 357 1847ft 0kts
21-Dec-17 17:47 34.135609 -115.946257 357 1847ft 0kts
21-Dec-17 17:48 34.135609 -115.946257 357 1847ft 0kts
21-Dec-17 17:49 34.135609 -115.946257 357 1847ft 0kts
21-Dec-17 17:50 34.135609 -115.946257 357 1847ft 0kts
21-Dec-17 17:51 34.135609 -115.946257 357 1847ft 0kts
21-Dec-17 17:52 34.135609 -115.946257 357 1847ft 0kts
21-Dec-17 17:53 34.135609 -115.946257 357 1847ft 0kts
21-Dec-17 17:54 34.135609 -115.946257 357 1847ft 0kts
21-Dec-17 17:55 34.135609 -115.946257 357 1847ft 0kts
21-Dec-17 17:56 34.135609 -115.946257 357 1847ft 0kts
21-Dec-17 17:57 34.135609 -115.946257 357 1847ft 0kts
21-Dec-17 17:58 34.135609 -115.946257 357 1847ft 0kts
21-Dec-17 17:59 34.135609 -115.946257 357 1847ft 0kts
21-Dec-17 18:00 34.135609 -115.946257 357 1847ft 0kts
21-Dec-17 18:01 34.135536 -115.946297 5 1847ft 0kts
21-Dec-17 18:02 34.135551 -115.946295 4 1847ft 0kts
21-Dec-17 18:03 34.135555 -115.946295 4 1847ft 0kts
21-Dec-17 18:04 34.135555 -115.946295 4 1847ft 0kts
21-Dec-17 18:05 34.135555 -115.946295 4 1847ft 0kts
21-Dec-17 18:06 34.135555 -115.946295 4 1847ft 0kts
21-Dec-17 18:07 34.135522 -115.946483 171 1847ft 6kts
21-Dec-17 18:08 34.134165 -115.947436 177 1847ft 9kts
21-Dec-17 18:09 34.123441 -115.947509 169 2268ft 110kts
21-Dec-17 18:10 34.112135 -115.980068 295 4097ft 148kts
21-Dec-17 18:11 34.127134 -116.029342 271 5168ft 171kts
21-Dec-17 18:12 34.124766 -116.090452 264 6389ft 189kts
21-Dec-17 18:13 34.121664 -116.154948 265 7601ft 195kts
21-Dec-17 18:14 34.118479 -116.220697 265 8805ft 196kts
21-Dec-17 18:15 34.115252 -116.286536 266 10008ft 196kts
21-Dec-17 18:16 34.112017 -116.351768 267 11211ft 192kts
21-Dec-17 18:17 34.108703 -116.418143 267 12422ft 207kts
21-Dec-17 18:18 34.105155 -116.488342 267 13625ft 210kts
21-Dec-17 18:19 34.102765 -116.559492 270 14484ft 221kts
21-Dec-17 18:20 34.101706 -116.637976 270 14506ft 242kts
21-Dec-17 18:21 34.100406 -116.720619 270 14512ft 248kts
21-Dec-17 18:22 34.099038 -116.802873 270 14513ft 243kts
21-Dec-17 18:23 34.097643 -116.884211 270 14514ft 242kts
21-Dec-17 18:24 34.096218 -116.964991 269 14508ft 239kts
21-Dec-17 18:25 34.094693 -117.045046 270 14499ft 238kts
21-Dec-17 18:26 34.093157 -117.124759 270 14497ft 237kts
21-Dec-17 18:27 34.091547 -117.204299 269 14490ft 237kts
21-Dec-17 18:28 34.089912 -117.283708 269 14493ft 237kts
21-Dec-17 18:29 34.088226 -117.363396 269 14490ft 237kts
21-Dec-17 18:30 34.086486 -117.442857 269 14487ft 237kts
21-Dec-17 18:31 34.084720 -117.522013 269 14490ft 236kts
21-Dec-17 18:32 34.082895 -117.601188 269 14492ft 235kts
21-Dec-17 18:33 34.081038 -117.680180 269 14485ft 236kts
21-Dec-17 18:34 34.079098 -117.759659 270 14499ft 236kts
21-Dec-17 18:35 34.055737 -117.833029 242 14503ft 242kts
21-Dec-17 18:36 34.044102 -117.907784 292 14500ft 236kts
21-Dec-17 18:37 34.068323 -117.981616 288 14493ft 236kts
21-Dec-17 18:38 34.090771 -118.056069 289 14492ft 236kts
21-Dec-17 18:39 34.113498 -118.130493 289 14489ft 236kts
21-Dec-17 18:40 34.136070 -118.204202 289 14484ft 236kts
21-Dec-17 18:41 34.158725 -118.278527 289 14482ft 236kts
21-Dec-17 18:42 34.181426 -118.353071 289 14481ft 236kts
21-Dec-17 18:43 34.203967 -118.427433 289 14487ft 236kts
21-Dec-17 18:44 34.226525 -118.501773 290 14486ft 236kts
21-Dec-17 18:45 34.251971 -118.575220 291 14485ft 236kts
21-Dec-17 18:46 34.277198 -118.648442 291 14482ft 236kts
21-Dec-17 18:47 34.302241 -118.721620 291 14484ft 235kts
21-Dec-17 18:48 34.327279 -118.795004 291 14489ft 235kts
21-Dec-17 18:49 34.352138 -118.867976 291 14490ft 234kts
21-Dec-17 18:50 34.367799 -118.944220 281 14491ft 234kts
21-Dec-17 18:51 34.381238 -119.021467 281 14491ft 234kts
21-Dec-17 18:52 34.394628 -119.098456 281 14492ft 234kts
21-Dec-17 18:53 34.407985 -119.175485 281 14492ft 234kts
21-Dec-17 18:54 34.421293 -119.252525 281 14491ft 234kts
21-Dec-17 18:55 34.434607 -119.329904 281 14489ft 234kts
21-Dec-17 18:56 34.447847 -119.407081 281 14489ft 234kts
21-Dec-17 18:57 34.461000 -119.484161 281 14486ft 233kts
21-Dec-17 18:58 34.474136 -119.561415 281 14484ft 233kts
21-Dec-17 18:59 34.487189 -119.638479 281 14481ft 234kts
21-Dec-17 19:00 34.498938 -119.708132 281 14270ft 179kts
21-Dec-17 19:01 34.508611 -119.765723 281 13167ft 170kts
21-Dec-17 19:02 34.513089 -119.822836 275 12068ft 171kts
21-Dec-17 19:03 34.517093 -119.880865 275 10970ft 174kts
21-Dec-17 19:04 34.521155 -119.940545 275 9869ft 179kts
21-Dec-17 19:05 34.525302 -120.001788 274 8771ft 185kts
21-Dec-17 19:06 34.529507 -120.064332 274 7675ft 186kts
21-Dec-17 19:07 34.556264 -120.113544 325 6576ft 189kts
21-Dec-17 19:08 34.597876 -120.151841 320 5479ft 187kts
21-Dec-17 19:09 34.638657 -120.189701 320 4560ft 185kts
21-Dec-17 19:10 34.681733 -120.229436 320 4159ft 209kts
21-Dec-17 19:11 34.730481 -120.274367 320 3464ft 224kts
21-Dec-17 19:12 34.780557 -120.319463 332 2759ft 225kts
21-Dec-17 19:13 34.842420 -120.320075 351 2503ft 217kts
21-Dec-17 19:14 34.901726 -120.329835 350 2502ft 214kts
21-Dec-17 19:15 34.954619 -120.358919 315 2503ft 211kts
21-Dec-17 19:16 34.988407 -120.410334 303 1894ft 174kts
21-Dec-17 19:17 35.012318 -120.453690 303 1792ft 137kts
21-Dec-17 19:18 35.031015 -120.487505 302 1929ft 126kts
21-Dec-17 19:19 35.053527 -120.528251 303 1491ft 134kts
21-Dec-17 19:20 35.069304 -120.563424 298 1204ft 114kts
21-Dec-17 19:21 35.084091 -120.592861 306 559ft 96kts
21-Dec-17 19:22 35.099231 -120.618455 305 35ft 83kts
21-Dec-17 19:23 35.102567 -120.623855 45 18ft 0kts
21-Dec-17 19:24 35.102608 -120.623193 75 18ft 6kts
21-Dec-17 19:25 35.102739 -120.623044 33 18ft 0kts
21-Dec-17 19:26 35.102739 -120.623044 33 18ft 0kts
21-Dec-17 19:27 35.102739 -120.623044 33 18ft 0kts
21-Dec-17 19:28 35.102739 -120.623044 33 18ft 0kts
21-Dec-17 19:29 35.102739 -120.623044 33 18ft 0kts
21-Dec-17 19:30 35.102739 -120.623044 33 18ft 0kts
21-Dec-17 19:31 35.102739 -120.623044 33 18ft 0kts
21-Dec-17 19:32 35.102739 -120.623044 33 18ft 0kts
21-Dec-17 19:33 35.102739 -120.623044 33 18ft 0kts
21-Dec-17 19:34 35.102739 -120.623044 33 18ft 0kts
21-Dec-17 19:35 35.102739 -120.623044 33 18ft 0kts
21-Dec-17 19:36 35.102739 -120.623044 33 18ft 0kts
21-Dec-17 19:37 35.102739 -120.623044 33 18ft 0kts

Navigation Log

Ident Type
Flight plan parsing failed, navigation log unavailable